createdAt,value
2022-10-30T00:00:18.941Z,35.25
2022-10-30T00:02:48.558Z,40.45
2022-10-30T00:05:15.332Z,38.92
2022-10-30T00:07:42.131Z,37.38
2022-10-30T00:10:08.967Z,45.15
2022-10-30T00:12:35.554Z,41.95
2022-10-30T00:15:02.135Z,41.30
2022-10-30T00:17:28.664Z,40.97
2022-10-30T00:19:55.175Z,43.55
2022-10-30T00:22:21.938Z,40.80
2022-10-30T00:24:48.467Z,42.17
2022-10-30T00:27:14.911Z,42.78
2022-10-30T00:29:41.899Z,47.78
2022-10-30T00:32:08.407Z,44.58
2022-10-30T00:34:34.802Z,47.17
2022-10-30T00:37:01.225Z,40.15
2022-10-30T00:39:27.665Z,43.88
2022-10-30T00:41:54.100Z,42.70
2022-10-30T00:44:37.458Z,44.78
2022-10-30T00:47:11.721Z,41.47
2022-10-30T00:49:39.188Z,44.47
2022-10-30T00:52:06.012Z,43.78
2022-10-30T00:54:32.659Z,41.13
2022-10-30T00:57:01.280Z,44.15
2022-10-30T00:59:28.679Z,38.70
2022-10-30T01:01:55.191Z,38.58
2022-10-30T01:04:25.897Z,39.65
2022-10-30T01:06:56.298Z,40.95
2022-10-30T01:09:22.776Z,38.95
2022-10-30T01:11:49.222Z,40.70
2022-10-30T01:14:16.350Z,42.30
2022-10-30T01:17:09.816Z,41.30
2022-10-30T01:19:36.254Z,37.80
2022-10-30T01:22:11.944Z,44.85
2022-10-30T01:24:38.434Z,43.33
2022-10-30T01:27:10.992Z,38.13
2022-10-30T01:29:56.292Z,40.47
2022-10-30T01:32:39.082Z,37.95
2022-10-30T01:35:07.633Z,41.25
2022-10-30T01:37:52.854Z,47.40
2022-10-30T01:40:20.307Z,40.97
2022-10-30T01:42:49.852Z,50.58
2022-10-30T01:45:24.974Z,45.60
2022-10-30T01:48:02.706Z,45.35
2022-10-30T01:50:50.151Z,50.97
2022-10-30T01:53:35.000Z,47.60
2022-10-30T01:56:13.673Z,52.03
2022-10-30T01:58:40.087Z,48.35
2022-10-30T02:01:06.662Z,47.70
2022-10-30T02:03:33.136Z,49.47
2022-10-30T02:05:59.611Z,51.63
2022-10-30T02:08:26.094Z,51.47
2022-10-30T02:10:52.692Z,53.72
2022-10-30T02:13:19.180Z,45.40
2022-10-30T02:15:45.659Z,52.37
2022-10-30T02:18:12.145Z,47.33
2022-10-30T02:20:39.010Z,44.93
2022-10-30T02:23:06.973Z,48.50
2022-10-30T02:25:33.861Z,48.70
2022-10-30T02:28:00.409Z,51.63
2022-10-30T02:30:26.859Z,52.67
2022-10-30T02:32:53.541Z,56.20
2022-10-30T02:35:20.203Z,56.33
2022-10-30T02:37:47.806Z,53.92
2022-10-30T02:40:14.308Z,48.45
2022-10-30T02:42:40.810Z,53.45
2022-10-30T02:45:07.572Z,56.22
2022-10-30T02:47:34.083Z,61.95
2022-10-30T02:50:00.540Z,59.42
2022-10-30T02:52:27.024Z,63.22
2022-10-30T02:54:53.561Z,56.83
2022-10-30T02:57:20.047Z,63.22
2022-10-30T02:59:46.525Z,55.38
2022-10-30T03:02:13.085Z,67.15
2022-10-30T03:04:39.565Z,53.80
2022-10-30T03:07:06.024Z,59.85
2022-10-30T03:09:32.503Z,49.47
2022-10-30T03:11:58.989Z,60.15
2022-10-30T03:14:25.469Z,56.22
2022-10-30T03:16:52.705Z,51.92
2022-10-30T03:19:19.518Z,50.97
2022-10-30T03:21:46.066Z,52.70
2022-10-30T03:24:12.589Z,52.67
2022-10-30T03:26:38.989Z,49.00
2022-10-30T03:29:05.437Z,47.17
2022-10-30T03:31:32.655Z,48.38
2022-10-30T03:33:59.114Z,45.63
2022-10-30T03:36:25.767Z,50.80
2022-10-30T03:38:52.252Z,47.03
2022-10-30T03:41:18.663Z,47.75
2022-10-30T03:43:45.165Z,44.80
2022-10-30T03:46:11.631Z,55.80
2022-10-30T03:48:38.073Z,51.72
2022-10-30T03:51:04.604Z,53.90
2022-10-30T03:53:31.342Z,46.80
2022-10-30T03:55:58.534Z,50.55
2022-10-30T03:58:25.303Z,48.92
2022-10-30T04:00:51.761Z,50.88
2022-10-30T04:03:18.240Z,52.13
2022-10-30T04:05:44.709Z,57.20
2022-10-30T04:08:12.161Z,55.80
2022-10-30T04:10:42.116Z,50.13
2022-10-30T04:13:09.559Z,53.00
2022-10-30T04:15:36.212Z,59.97
2022-10-30T04:18:02.980Z,50.30
2022-10-30T04:20:29.556Z,49.03
2022-10-30T04:22:56.903Z,48.28
2022-10-30T04:25:23.522Z,48.80
2022-10-30T04:27:50.028Z,49.05
2022-10-30T04:30:16.493Z,51.45
2022-10-30T04:32:46.736Z,50.10
2022-10-30T04:35:13.587Z,50.80
2022-10-30T04:37:40.013Z,53.75
2022-10-30T04:40:06.931Z,47.03
2022-10-30T04:42:33.404Z,47.05
2022-10-30T04:45:05.029Z,47.67
2022-10-30T04:50:03.276Z,52.20
2022-10-30T04:52:29.784Z,50.38
2022-10-30T04:54:56.318Z,48.20
2022-10-30T04:57:22.854Z,48.50
2022-10-30T04:59:49.291Z,56.10
2022-10-30T05:02:15.968Z,49.75
2022-10-30T05:04:42.566Z,53.60
2022-10-30T05:07:09.102Z,49.50
2022-10-30T05:09:35.533Z,54.53
2022-10-30T05:12:05.582Z,56.30
2022-10-30T05:14:32.290Z,53.58
2022-10-30T05:16:59.290Z,60.65
2022-10-30T05:19:25.892Z,60.53
2022-10-30T05:21:53.409Z,70.78
2022-10-30T05:24:20.523Z,69.53
2022-10-30T05:26:47.033Z,61.28
2022-10-30T05:29:13.696Z,66.13
2022-10-30T05:31:40.518Z,75.97
2022-10-30T05:34:07.599Z,65.13
2022-10-30T05:36:34.184Z,73.80
2022-10-30T05:39:03.012Z,65.07
2022-10-30T05:41:29.697Z,66.65
2022-10-30T05:43:56.353Z,70.47
2022-10-30T05:46:22.882Z,73.32
2022-10-30T05:48:49.320Z,67.53
2022-10-30T05:51:15.851Z,67.82
2022-10-30T05:53:42.351Z,59.33
2022-10-30T05:56:09.232Z,57.28
2022-10-30T05:58:35.703Z,62.08
2022-10-30T06:01:05.446Z,57.50
2022-10-30T06:03:31.902Z,60.30
2022-10-30T06:05:58.393Z,55.63
2022-10-30T06:08:25.004Z,59.55
2022-10-30T06:10:51.450Z,59.58
2022-10-30T06:13:18.046Z,58.80
2022-10-30T06:15:44.535Z,61.95
2022-10-30T06:18:11.255Z,62.35
2022-10-30T06:20:37.843Z,65.32
2022-10-30T06:23:05.046Z,63.67
2022-10-30T06:25:40.782Z,55.35
2022-10-30T06:28:08.026Z,57.45
2022-10-30T06:30:34.486Z,56.40
2022-10-30T06:33:01.831Z,66.78
2022-10-30T06:35:28.460Z,60.58
2022-10-30T06:37:56.464Z,57.83
2022-10-30T06:40:23.557Z,65.22
2022-10-30T06:42:51.523Z,61.88
2022-10-30T06:45:18.641Z,64.63
2022-10-30T06:47:45.193Z,54.67
2022-10-30T06:50:14.478Z,55.53
2022-10-30T06:52:41.076Z,58.67
2022-10-30T06:55:07.755Z,62.05
2022-10-30T06:57:34.250Z,59.40
2022-10-30T07:00:00.717Z,65.88
2022-10-30T07:02:27.248Z,62.00
2022-10-30T07:04:53.755Z,63.45
2022-10-30T07:07:21.419Z,64.30
2022-10-30T07:09:47.951Z,62.90
2022-10-30T07:12:15.608Z,57.65
2022-10-30T07:14:42.202Z,63.63
2022-10-30T07:17:09.149Z,54.20
2022-10-30T07:19:35.876Z,58.97
2022-10-30T07:22:02.417Z,58.53
2022-10-30T07:24:28.912Z,59.97
2022-10-30T07:26:55.644Z,59.67
2022-10-30T07:29:22.214Z,60.00
2022-10-30T07:32:01.833Z,63.08
2022-10-30T07:34:29.286Z,59.17
2022-10-30T07:36:55.786Z,62.22
2022-10-30T07:39:23.241Z,60.17
2022-10-30T07:41:50.730Z,63.60
2022-10-30T07:44:17.429Z,63.10
2022-10-30T07:46:43.984Z,59.05
2022-10-30T07:49:10.453Z,61.38
2022-10-30T07:51:36.927Z,59.47
2022-10-30T07:54:03.546Z,66.68
2022-10-30T07:56:30.208Z,63.50
2022-10-30T07:58:56.705Z,62.72
2022-10-30T08:01:23.625Z,66.28
2022-10-30T08:03:50.240Z,69.80
2022-10-30T08:06:20.003Z,68.32
2022-10-30T08:08:49.616Z,70.50
2022-10-30T08:11:16.081Z,68.28
2022-10-30T08:13:42.671Z,66.47
2022-10-30T08:16:09.190Z,68.38
2022-10-30T08:18:35.744Z,65.28
2022-10-30T08:21:02.248Z,65.32
2022-10-30T08:23:28.760Z,64.32
2022-10-30T08:25:57.029Z,76.47
2022-10-30T08:28:26.959Z,62.20
2022-10-30T08:30:56.599Z,61.28
2022-10-30T08:33:25.675Z,66.15
2022-10-30T08:36:01.758Z,71.95
2022-10-30T08:38:28.373Z,64.57
2022-10-30T08:40:54.902Z,72.10
2022-10-30T08:43:22.025Z,62.55
2022-10-30T08:45:48.484Z,80.82
2022-10-30T08:48:15.701Z,72.45
2022-10-30T08:50:42.221Z,65.93
2022-10-30T08:53:10.199Z,61.63
2022-10-30T08:55:36.649Z,59.03
2022-10-30T08:58:03.148Z,70.68
2022-10-30T09:00:29.747Z,70.28
2022-10-30T09:02:56.737Z,62.70
2022-10-30T09:05:23.712Z,61.58
2022-10-30T09:07:50.463Z,65.43
2022-10-30T09:10:17.113Z,62.08
2022-10-30T09:12:43.609Z,64.55
2022-10-30T09:15:10.132Z,62.75
2022-10-30T09:17:36.682Z,55.20
2022-10-30T09:20:03.428Z,59.28
2022-10-30T09:22:29.882Z,61.67
2022-10-30T09:24:56.374Z,55.92
2022-10-30T09:27:22.831Z,55.13
2022-10-30T09:29:49.275Z,52.33
2022-10-30T09:32:15.736Z,52.17
2022-10-30T09:34:42.253Z,47.67
2022-10-30T09:37:08.679Z,48.63
2022-10-30T09:39:35.141Z,43.00
2022-10-30T09:42:20.656Z,40.33
2022-10-30T09:45:27.801Z,39.88
2022-10-30T09:47:55.586Z,30.85
2022-10-30T09:50:26.061Z,33.15
2022-10-30T09:52:52.486Z,29.20
2022-10-30T09:55:22.061Z,29.45
2022-10-30T09:58:00.919Z,25.77
2022-10-30T10:00:32.902Z,26.45
2022-10-30T10:03:18.179Z,25.48
2022-10-30T10:05:46.243Z,27.65
2022-10-30T10:08:32.875Z,29.52
2022-10-30T10:11:03.768Z,26.20
2022-10-30T10:13:36.039Z,27.60
2022-10-30T10:16:05.036Z,27.90
2022-10-30T10:18:51.728Z,27.25
2022-10-30T10:21:22.816Z,23.98
2022-10-30T10:23:49.878Z,21.92
2022-10-30T10:26:19.457Z,27.88
2022-10-30T10:28:48.927Z,29.15
2022-10-30T10:31:15.399Z,25.10
2022-10-30T10:33:57.991Z,26.05
2022-10-30T10:36:27.676Z,25.20
2022-10-30T10:39:01.612Z,25.45
2022-10-30T10:41:40.541Z,32.42
2022-10-30T10:44:18.649Z,27.23
2022-10-30T10:46:45.100Z,24.50
2022-10-30T10:49:17.821Z,25.08
2022-10-30T10:51:45.809Z,24.17
2022-10-30T10:54:16.197Z,22.52
2022-10-30T10:56:43.756Z,24.42
2022-10-30T10:59:20.503Z,22.85
2022-10-30T11:01:56.954Z,22.42
2022-10-30T11:04:42.258Z,25.88
2022-10-30T11:07:28.779Z,24.25
2022-10-30T11:09:55.645Z,23.55
2022-10-30T11:12:26.941Z,20.90
2022-10-30T11:14:55.181Z,20.20
2022-10-30T11:17:39.107Z,21.30
2022-10-30T11:20:15.218Z,21.33
2022-10-30T11:22:43.183Z,20.52
2022-10-30T11:25:30.154Z,20.63
2022-10-30T11:27:59.362Z,23.67
2022-10-30T11:30:28.574Z,17.92
2022-10-30T11:32:57.105Z,20.40
2022-10-30T11:35:24.020Z,21.30
2022-10-30T11:37:51.334Z,21.58
2022-10-30T11:40:21.682Z,21.73
2022-10-30T11:42:57.132Z,22.52
2022-10-30T11:45:28.644Z,19.42
2022-10-30T11:47:57.058Z,16.60
2022-10-30T11:50:27.392Z,23.20
2022-10-30T11:53:01.452Z,16.27
2022-10-30T11:55:30.008Z,21.65
2022-10-30T11:57:57.250Z,19.48
2022-10-30T12:00:24.723Z,14.93
2022-10-30T12:02:52.932Z,17.15
2022-10-30T12:05:25.205Z,17.38
2022-10-30T12:07:52.040Z,15.25
2022-10-30T12:10:28.310Z,21.10
2022-10-30T12:12:54.850Z,21.30
2022-10-30T12:15:21.968Z,21.80
2022-10-30T12:17:55.463Z,15.60
2022-10-30T12:20:21.920Z,21.35
2022-10-30T12:22:48.558Z,14.13
2022-10-30T12:25:25.176Z,14.40
2022-10-30T12:27:51.664Z,17.27
2022-10-30T12:30:18.814Z,19.60
2022-10-30T12:32:47.707Z,16.00
2022-10-30T12:35:40.800Z,17.83
2022-10-30T12:38:10.529Z,17.25
2022-10-30T12:40:38.370Z,18.50
2022-10-30T12:43:18.988Z,15.48
2022-10-30T12:45:49.003Z,17.92
2022-10-30T12:48:22.866Z,13.45
2022-10-30T12:51:01.601Z,19.73
2022-10-30T12:53:30.426Z,19.27
2022-10-30T12:56:08.818Z,14.95
2022-10-30T12:58:51.162Z,16.38
2022-10-30T13:01:26.848Z,21.30
2022-10-30T13:03:54.984Z,21.48
2022-10-30T13:06:23.984Z,16.38
2022-10-30T13:08:55.535Z,21.83
2022-10-30T13:11:40.986Z,25.48
2022-10-30T13:14:11.341Z,20.88
2022-10-30T13:16:37.854Z,24.17
2022-10-30T13:19:05.857Z,22.58
2022-10-30T13:21:37.772Z,19.55
2022-10-30T13:24:11.540Z,19.55
2022-10-30T13:26:56.184Z,18.17
2022-10-30T13:29:26.863Z,19.10
2022-10-30T13:31:56.934Z,17.83
2022-10-30T13:34:29.584Z,17.83
2022-10-30T13:36:58.761Z,16.40
2022-10-30T13:39:28.744Z,18.80
2022-10-30T13:42:14.832Z,19.45
2022-10-30T13:44:45.418Z,20.85
2022-10-30T13:47:14.957Z,20.40
2022-10-30T13:49:44.537Z,16.30
2022-10-30T13:52:13.256Z,19.30
2022-10-30T13:54:42.328Z,15.90
2022-10-30T13:57:18.001Z,17.45
2022-10-30T13:59:50.776Z,19.23
2022-10-30T14:02:20.384Z,14.20
2022-10-30T14:04:55.358Z,17.58
2022-10-30T14:07:21.835Z,16.80
2022-10-30T14:09:54.784Z,23.15
2022-10-30T14:12:40.179Z,17.80
2022-10-30T14:15:07.038Z,12.93
2022-10-30T14:17:33.489Z,15.10
2022-10-30T14:20:12.083Z,13.57
2022-10-30T14:22:40.397Z,16.38
2022-10-30T14:25:13.462Z,17.08
2022-10-30T14:27:39.921Z,17.50
2022-10-30T14:30:13.565Z,11.65
2022-10-30T14:32:40.047Z,10.20
2022-10-30T14:35:26.490Z,10.75
2022-10-30T14:37:52.905Z,13.63
2022-10-30T14:40:32.273Z,11.07
2022-10-30T14:43:00.019Z,12.57
2022-10-30T14:45:27.965Z,10.95
2022-10-30T14:47:54.361Z,12.82
2022-10-30T14:50:20.818Z,11.70
2022-10-30T14:52:50.280Z,9.70
2022-10-30T14:55:28.451Z,11.60
2022-10-30T14:58:01.149Z,9.80
2022-10-30T15:00:29.476Z,13.93
2022-10-30T15:02:55.873Z,12.15
2022-10-30T15:05:28.536Z,12.27
2022-10-30T15:08:01.627Z,15.73
2022-10-30T15:10:31.873Z,15.30
2022-10-30T15:13:13.474Z,14.15
2022-10-30T15:15:40.021Z,12.77
2022-10-30T15:18:10.549Z,16.02
2022-10-30T15:20:37.649Z,11.55
2022-10-30T15:23:08.955Z,12.27
2022-10-30T15:25:40.018Z,15.95
2022-10-30T15:28:06.529Z,12.38
2022-10-30T15:30:33.062Z,14.75
2022-10-30T15:32:59.928Z,12.00
2022-10-30T15:35:27.332Z,16.55
2022-10-30T15:38:06.762Z,15.60
2022-10-30T15:40:36.803Z,16.40
2022-10-30T15:43:03.610Z,15.25
2022-10-30T15:45:33.253Z,13.02
2022-10-30T15:48:08.890Z,14.95
2022-10-30T15:50:35.434Z,15.50
2022-10-30T15:53:01.947Z,15.80
2022-10-30T15:55:29.325Z,13.60
2022-10-30T15:58:04.684Z,13.43
2022-10-30T16:00:32.523Z,12.57
2022-10-30T16:03:03.604Z,14.35
2022-10-30T16:05:31.065Z,18.65
2022-10-30T16:07:58.268Z,18.67
2022-10-30T16:10:25.848Z,18.02
2022-10-30T16:12:56.684Z,15.77
2022-10-30T16:15:38.967Z,16.48
2022-10-30T16:18:24.602Z,20.38
2022-10-30T16:20:51.946Z,19.33
2022-10-30T16:23:18.586Z,22.92
2022-10-30T16:25:47.425Z,20.45
2022-10-30T16:28:33.514Z,20.40
2022-10-30T16:31:00.665Z,21.80
2022-10-30T16:33:27.620Z,22.05
2022-10-30T16:35:55.787Z,27.10
2022-10-30T16:38:23.009Z,20.80
2022-10-30T16:40:49.600Z,24.73
2022-10-30T16:43:28.457Z,25.88
2022-10-30T16:45:55.130Z,29.20
2022-10-30T16:48:30.651Z,26.98
2022-10-30T16:51:00.934Z,28.55
2022-10-30T16:53:27.895Z,27.80
2022-10-30T16:55:54.582Z,30.60
2022-10-30T16:58:21.108Z,33.70
2022-10-30T17:00:51.953Z,40.50
2022-10-30T17:03:19.704Z,32.22
2022-10-30T17:05:47.612Z,34.45
2022-10-30T17:08:17.049Z,36.55
2022-10-30T17:10:52.774Z,36.70
2022-10-30T17:13:38.013Z,32.90
2022-10-30T17:16:25.339Z,29.40
2022-10-30T17:18:56.116Z,32.95
2022-10-30T17:21:23.811Z,32.03
2022-10-30T17:23:54.645Z,36.60
2022-10-30T17:26:21.180Z,33.67
2022-10-30T17:28:47.704Z,32.83
2022-10-30T17:31:21.450Z,32.30
2022-10-30T17:34:06.992Z,28.73
2022-10-30T17:36:33.447Z,31.05
2022-10-30T17:38:59.883Z,31.40
2022-10-30T17:41:26.332Z,35.92
2022-10-30T17:43:53.253Z,34.40
2022-10-30T17:46:20.477Z,30.40
2022-10-30T17:48:47.521Z,30.45
2022-10-30T17:51:14.200Z,34.72
2022-10-30T17:53:40.835Z,33.15
2022-10-30T17:56:11.437Z,32.33
2022-10-30T17:58:38.005Z,27.48
2022-10-30T18:01:04.755Z,28.92
2022-10-30T18:03:31.265Z,27.15
2022-10-30T18:05:59.969Z,27.92
2022-10-30T18:08:26.558Z,26.60
2022-10-30T18:10:52.985Z,27.10
2022-10-30T18:13:20.145Z,34.67
2022-10-30T18:15:56.451Z,34.42
2022-10-30T18:18:23.102Z,31.88
2022-10-30T18:20:49.542Z,31.58
2022-10-30T18:23:38.804Z,26.58
2022-10-30T18:26:05.157Z,25.40
2022-10-30T18:28:31.724Z,24.38
2022-10-30T18:30:58.999Z,27.13
2022-10-30T18:33:25.452Z,28.20
2022-10-30T18:35:51.951Z,23.23
2022-10-30T18:38:18.441Z,28.05
2022-10-30T18:40:45.393Z,18.83
2022-10-30T18:43:11.948Z,26.35
2022-10-30T18:45:39.847Z,27.13
2022-10-30T18:48:06.695Z,23.83
2022-10-30T18:50:33.270Z,21.48
2022-10-30T18:53:00.087Z,22.73
2022-10-30T18:55:29.709Z,22.38
2022-10-30T18:57:56.408Z,21.92
2022-10-30T19:00:25.125Z,26.40
2022-10-30T19:02:52.176Z,19.85
2022-10-30T19:05:21.823Z,19.85
2022-10-30T19:07:48.319Z,23.00
2022-10-30T19:10:15.216Z,22.58
2022-10-30T19:13:04.182Z,20.88
2022-10-30T19:15:33.390Z,23.05
2022-10-30T19:18:00.819Z,20.85
2022-10-30T19:20:37.713Z,26.02
2022-10-30T19:23:17.616Z,22.30
2022-10-30T19:25:44.524Z,27.08
2022-10-30T19:28:11.579Z,26.75
2022-10-30T19:30:38.753Z,25.58
2022-10-30T19:33:05.248Z,27.73
2022-10-30T19:35:31.740Z,26.33
2022-10-30T19:37:58.608Z,30.70
2022-10-30T19:40:35.105Z,37.10
2022-10-30T19:43:01.897Z,44.80
2022-10-30T19:45:29.705Z,41.15
2022-10-30T19:47:57.043Z,36.53
2022-10-30T19:50:26.719Z,37.35
2022-10-30T19:52:54.086Z,42.20
2022-10-30T19:55:20.777Z,36.83
2022-10-30T19:57:47.400Z,35.17
2022-10-30T20:00:15.793Z,39.38
2022-10-30T20:02:42.397Z,38.22
2022-10-30T20:05:12.905Z,31.50
2022-10-30T20:07:40.054Z,35.90
2022-10-30T20:10:13.536Z,31.75
2022-10-30T20:12:40.215Z,32.63
2022-10-30T20:15:09.227Z,34.85
2022-10-30T20:17:37.342Z,31.40
2022-10-30T20:20:04.324Z,32.50
2022-10-30T20:22:30.835Z,38.55
2022-10-30T20:24:58.025Z,29.60
2022-10-30T20:27:24.577Z,27.88
2022-10-30T20:29:51.227Z,33.47
2022-10-30T20:32:17.865Z,29.92
2022-10-30T20:34:44.401Z,30.55
2022-10-30T20:37:11.238Z,30.05
2022-10-30T20:39:38.365Z,31.75
2022-10-30T20:42:05.142Z,31.33
2022-10-30T20:44:31.673Z,38.35
2022-10-30T20:46:58.155Z,37.25
2022-10-30T20:49:24.859Z,37.17
2022-10-30T20:51:51.756Z,31.50
2022-10-30T20:54:18.983Z,36.15
2022-10-30T20:56:45.608Z,40.47
2022-10-30T20:59:12.363Z,34.38
2022-10-30T21:01:39.054Z,39.75
2022-10-30T21:04:05.699Z,38.20
2022-10-30T21:06:32.611Z,44.35
2022-10-30T21:08:59.305Z,37.08
2022-10-30T21:11:26.092Z,39.67
2022-10-30T21:13:56.462Z,36.58
2022-10-30T21:16:23.050Z,41.50
2022-10-30T21:18:55.978Z,40.47
2022-10-30T21:21:25.548Z,43.40
2022-10-30T21:23:55.392Z,42.97
2022-10-30T21:26:23.360Z,40.25
2022-10-30T21:28:50.776Z,39.00
2022-10-30T21:31:17.346Z,41.10
2022-10-30T21:33:43.783Z,41.53
2022-10-30T21:36:14.253Z,41.63
2022-10-30T21:38:42.279Z,41.90
2022-10-30T21:41:09.791Z,36.53
2022-10-30T21:43:36.396Z,33.80
2022-10-30T21:46:06.701Z,35.15
2022-10-30T21:48:33.223Z,37.85
2022-10-30T21:51:06.932Z,31.45
2022-10-30T21:53:33.376Z,36.80
2022-10-30T21:56:03.221Z,30.40
2022-10-30T21:58:29.716Z,34.17
2022-10-30T22:00:56.221Z,30.58
2022-10-30T22:03:22.725Z,30.13
2022-10-30T22:05:49.306Z,31.10
2022-10-30T22:08:17.360Z,31.20
2022-10-30T22:10:43.967Z,27.88
2022-10-30T22:15:36.784Z,30.70
2022-10-30T22:18:03.266Z,30.45
2022-10-30T22:20:29.718Z,34.00
2022-10-30T22:22:56.128Z,36.15
2022-10-30T22:25:22.541Z,34.33
2022-10-30T22:27:48.976Z,38.53
2022-10-30T22:30:15.484Z,39.53
2022-10-30T22:32:41.953Z,33.88
2022-10-30T22:35:08.549Z,34.00
2022-10-30T22:37:35.025Z,35.75
2022-10-30T22:40:01.420Z,37.70
2022-10-30T22:42:27.932Z,29.13
2022-10-30T22:44:54.679Z,34.67
2022-10-30T22:47:21.292Z,38.88
2022-10-30T22:49:47.761Z,38.53
2022-10-30T22:52:14.265Z,42.97
2022-10-30T22:54:40.709Z,38.97
2022-10-30T22:57:07.456Z,32.63
2022-10-30T22:59:33.998Z,41.03
2022-10-30T23:02:00.763Z,43.42
2022-10-30T23:04:27.404Z,49.65
2022-10-30T23:06:53.809Z,44.47
2022-10-30T23:09:22.347Z,52.97
2022-10-30T23:11:48.890Z,47.13
2022-10-30T23:14:19.094Z,41.47
2022-10-30T23:16:45.591Z,49.55
2022-10-30T23:19:12.043Z,46.33
2022-10-30T23:21:38.496Z,48.30
2022-10-30T23:24:05.191Z,45.38
2022-10-30T23:26:32.415Z,41.00
2022-10-30T23:28:59.279Z,40.22
2022-10-30T23:31:26.855Z,38.13
2022-10-30T23:33:53.931Z,38.42
2022-10-30T23:36:20.466Z,35.85
2022-10-30T23:38:53.073Z,34.95
2022-10-30T23:41:22.689Z,36.70
2022-10-30T23:43:49.157Z,35.03
2022-10-30T23:46:15.592Z,37.75
2022-10-30T23:48:42.043Z,38.05
2022-10-30T23:51:08.568Z,38.35
2022-10-30T23:53:35.030Z,37.58
2022-10-30T23:56:01.592Z,33.92
2022-10-30T23:58:28.020Z,37.75
